TU635 / TS-IOM 7700 Squawk Report (12th of September, 2017)

Aircraft B736 Reg No. TS-IOM Age 18 years old
Model 737 Jet engines 2 First flight 16-06-99
Registered 09-07-99 Rollout N/A Delivered 09-07-99
Construction No. 29498 Line No. 0310 Series 6H3
ADSHEX 02A1CC Airline name Tunisair Owner N/A
Airfield based Tunis-Carthage~ ~TS First tracked 2011-11-25 13:10:01

Flight history for TS-IOM

Route Flight No Date Playback
Malpensa (MXP) - Carthage (TUN) TU757 2017-09-21 12:11:00
Carthage (TUN) - Malpensa (MXP) TU756 2017-09-21 12:10:00
Blagnac (TLS) - Carthage (TUN) TU283 2017-09-19 17:58:00
Carthage (TUN) - Blagnac (TLS) TU282 2017-09-19 15:34:00
???? N/A 2017-09-19 13:53:00
Zarzis (DJE) - Frankfurt Main (FRA) TU648 2017-09-15 16:10:00
M R Stefanik (BTS) - Zarzis (DJE) TU7249 2017-09-15 11:26:00
Zarzis (DJE) - M R Stefanik (BTS) TU7248 2017-09-15 09:09:00
Saint Exupery (LYS) - Zarzis (DJE) TU589 2017-09-15 06:14:00
Zarzis (DJE) - Saint Exupery (LYS) TU588 2017-09-14 17:05:00
Ljubljana (LJU) - Zarzis (DJE) TU6141 2017-09-13 19:58:00
Zarzis (DJE) - Ljubljana (LJU) TU6140 2017-09-13 18:08:00
???? N/A 2017-09-13 13:28:00
Orly (ORY) - Zarzis (DJE) TU635 2017-09-12 19:05:00
Zarzis (DJE) - Orly (ORY) TU634 2017-09-12 18:00:00
???? N/A 2017-09-11 23:27:00
Barajas (MAD) - Carthage (TUN) TU607 2017-09-11 21:46:00
Carthage (TUN) - Barajas (MAD) TU606 2017-09-11 20:15:00
Barcelona (BCN) - Carthage (TUN) TU515 2017-09-11 16:34:00
Carthage (TUN) - Barcelona (BCN) TU514 2017-09-11 12:49:00
Time Lat Lon Altitude Heading Speed Vertical Rate
2017-09-12 19:03:56 GMT 43.43924 5.22004 0 92 0 0
2017-09-12 19:03:51 GMT 43.43924 5.22004 0 92 2 0
2017-09-12 19:03:38 GMT 43.43911 5.21983 0 92 7 0
2017-09-12 19:03:29 GMT 43.43907 5.21947 0 126 9 0
2017-09-12 19:03:18 GMT 43.43929 5.21900 0 67 9 0
2017-09-12 19:03:10 GMT 43.43909 5.21862 0 56 10 0
2017-09-12 19:02:59 GMT 43.43906 5.21804 0 129 9 0
2017-09-12 19:02:49 GMT 43.43936 5.21760 0 135 10 0
2017-09-12 19:02:39 GMT 43.43962 5.21721 0 118 7 0
2017-09-12 19:02:28 GMT 43.43977 5.21683 0 101 8 0
2017-09-12 19:02:18 GMT 43.43973 5.21630 0 59 8 0
2017-09-12 19:02:06 GMT 43.43950 5.21594 0 45 9 0
2017-09-12 19:01:54 GMT 43.43924 5.21550 0 87 7 0
2017-09-12 19:01:46 GMT 43.43919 5.21515 0 92 9 0
2017-09-12 19:01:33 GMT 43.43939 5.21457 0 132 9 0
2017-09-12 19:01:25 GMT 43.43962 5.21424 0 135 10 0
2017-09-12 19:01:14 GMT 43.43994 5.21378 0 132 10 0
2017-09-12 19:01:04 GMT 43.44025 5.21333 0 135 10 0
2017-09-12 19:00:53 GMT 43.44056 5.21291 0 135 9 0
2017-09-12 19:00:43 GMT 43.44080 5.21256 0 132 8 0
2017-09-12 19:00:32 GMT 43.44103 5.21225 0 135 7 0
2017-09-12 19:00:22 GMT 43.44123 5.21196 0 135 7 0
2017-09-12 19:00:10 GMT 43.44149 5.21161 0 135 8 0
2017-09-12 19:00:01 GMT 43.44170 5.21130 0 135 8 0
2017-09-12 18:59:50 GMT 43.44198 5.21089 0 132 9 0
2017-09-12 18:59:39 GMT 43.44235 5.21033 0 135 13 0
2017-09-12 18:59:29 GMT 43.44271 5.20969 0 123 12 0
2017-09-12 18:59:19 GMT 43.44297 5.20905 0 118 12 0
2017-09-12 18:59:08 GMT 43.44309 5.20840 0 78 11 0
2017-09-12 18:58:58 GMT 43.44280 5.20777 0 36 14 0
2017-09-12 18:58:47 GMT 43.44211 5.20762 0 343 15 0
2017-09-12 18:58:37 GMT 43.44132 5.20857 0 315 40 0
2017-09-12 18:58:26 GMT 43.43931 5.21145 0 315 84 0
2017-09-12 18:58:15 GMT 43.43590 5.21645 0 315 120 0
2017-09-12 18:58:05 GMT 43.43198 5.22197 0 314 123 -1024
2017-09-12 18:57:55 GMT 43.42786 5.22821 150 315 123 -896
2017-09-12 18:57:45 GMT 43.42378 5.23384 275 314 121 -896
2017-09-12 18:57:34 GMT 43.41955 5.23989 425 316 120 -704
2017-09-12 18:57:24 GMT 43.41555 5.24532 575 314 117 -768
2017-09-12 18:57:22 GMT 43.41499 5.24578 600 314 117 -768
2017-09-12 18:57:13 GMT 43.41168 5.25068 700 314 118 -896
2017-09-12 18:57:11 GMT 43.41080 5.25179 750 313 117 -1088
2017-09-12 18:57:03 GMT 43.40772 5.25670 850 314 117 -896
2017-09-12 18:57:00 GMT 43.40666 5.25785 900 314 118 -832
2017-09-12 18:56:52 GMT 43.40373 5.26213 1,000 315 118 -832
2017-09-12 18:56:44 GMT 43.40062 5.26647 1,100 315 118 -768
2017-09-12 18:56:42 GMT 43.39984 5.26756 1,150 314 120 -896
2017-09-12 18:56:38 GMT 43.39809 5.27043 1,200 313 121 -960
2017-09-12 18:56:31 GMT 43.39540 5.27440 1,300 314 123 -960
2017-09-12 18:56:26 GMT 43.39339 5.27723 1,375 314 123 -896
2017-09-12 18:56:21 GMT 43.39142 5.28008 1,450 315 125 -832
2017-09-12 18:56:18 GMT 43.39037 5.28123 1,475 315 126 -896
2017-09-12 18:56:10 GMT 43.38712 5.28583 1,600 314 128 -896
2017-09-12 18:56:06 GMT 43.38529 5.28880 1,675 314 128 -1024
2017-09-12 18:56:00 GMT 43.38268 5.29247 1,750 315 132 -768
2017-09-12 18:55:56 GMT 43.38121 5.29426 1,800 315 134 -768
2017-09-12 18:55:50 GMT 43.37817 5.29861 1,925 314 137 -960
2017-09-12 18:55:46 GMT 43.37663 5.30117 1,975 314 138 -896
2017-09-12 18:55:39 GMT 43.37365 5.30502 2,075 314 140 -1088
2017-09-12 18:55:35 GMT 43.37188 5.30751 2,150 314 139 -1152
2017-09-12 18:55:29 GMT 43.36894 5.31202 2,250 315 137 -1024
2017-09-12 18:55:25 GMT 43.36711 5.31457 2,325 313 137 -832
2017-09-12 18:55:18 GMT 43.36427 5.31841 2,400 314 136 -448
2017-09-12 18:55:14 GMT 43.36234 5.32150 2,425 314 135 0
2017-09-12 18:55:07 GMT 43.35959 5.32530 2,425 315 136 0
2017-09-12 18:55:04 GMT 43.35782 5.32772 2,425 316 136 0
2017-09-12 18:54:57 GMT 43.35484 5.33131 2,425 319 136 0
2017-09-12 18:54:53 GMT 43.35284 5.33360 2,425 320 137 128
2017-09-12 18:54:47 GMT 43.35005 5.33700 2,425 321 139 -512
2017-09-12 18:54:42 GMT 43.34738 5.33987 2,450 323 141 -384
2017-09-12 18:54:36 GMT 43.34436 5.34306 2,500 326 142 -576
2017-09-12 18:54:31 GMT 43.34148 5.34524 2,550 342 146 -640
2017-09-12 18:54:26 GMT 43.33804 5.34632 2,600 1 152 -704
2017-09-12 18:54:20 GMT 43.33388 5.34593 2,650 6 156 -448
2017-09-12 18:54:15 GMT 43.33017 5.34537 2,700 6 160 -448
2017-09-12 18:54:10 GMT 43.32664 5.34478 2,750 6 162 -576
2017-09-12 18:54:05 GMT 43.32254 5.34420 2,775 6 167 -448
2017-09-12 18:53:59 GMT 43.31821 5.34354 2,825 5 172 -512
2017-09-12 18:53:54 GMT 43.31419 5.34293 2,875 5 175 -576
2017-09-12 18:53:48 GMT 43.30930 5.34217 2,925 6 181 -768
2017-09-12 18:53:44 GMT 43.30550 5.34171 2,975 5 182 -704
2017-09-12 18:53:38 GMT 43.30055 5.34095 3,050 5 186 -960
2017-09-12 18:53:34 GMT 43.29689 5.34034 3,125 6 188 -1408
2017-09-12 18:53:27 GMT 43.29125 5.33949 3,275 7 188 -1344
2017-09-12 18:53:23 GMT 43.28772 5.33870 3,375 10 190 -1472
2017-09-12 18:53:16 GMT 43.28165 5.33648 3,575 17 191 -1856
2017-09-12 18:53:13 GMT 43.27849 5.33508 3,675 17 190 -1536
2017-09-12 18:53:06 GMT 43.27327 5.33278 3,775 18 193 -256
2017-09-12 18:53:02 GMT 43.26988 5.33124 3,800 18 195 -768
2017-09-12 18:52:55 GMT 43.26383 5.32798 3,925 26 199 -1152
2017-09-12 18:52:52 GMT 43.26109 5.32543 4,000 32 202 -1216
2017-09-12 18:52:45 GMT 43.25583 5.31917 4,150 49 212 -1216
2017-09-12 18:52:41 GMT 43.25383 5.31601 4,225 55 215 -1152
2017-09-12 18:52:34 GMT 43.25015 5.30607 4,350 70 224 -1216
2017-09-12 18:52:31 GMT 43.24919 5.30212 4,400 73 226 -1216
2017-09-12 18:52:23 GMT 43.24740 5.29207 4,550 78 231 -1024
2017-09-12 18:52:20 GMT 43.24672 5.28781 4,600 78 231 -1024
2017-09-12 18:52:12 GMT 43.24498 5.27612 4,725 78 232 -1024
2017-09-12 18:52:10 GMT 43.24442 5.27187 4,775 78 233 -832
2017-09-12 18:52:00 GMT 43.24261 5.25689 4,900 88 244 -960
2017-09-12 18:51:51 GMT 43.24330 5.24447 5,050 101 251 -1216
2017-09-12 18:51:49 GMT 43.24377 5.24126 5,075 103 252 -1344
2017-09-12 18:51:41 GMT 43.24631 5.22732 5,300 104 253 -1408
2017-09-12 18:51:38 GMT 43.24709 5.22406 5,350 104 254 -1216
2017-09-12 18:51:28 GMT 43.25011 5.20848 5,525 104 257 -1024
2017-09-12 18:51:18 GMT 43.25336 5.19097 5,700 104 260 -1152
2017-09-12 18:51:07 GMT 43.25653 5.17489 5,850 104 265 -640
2017-09-12 18:50:57 GMT 43.26000 5.15680 5,975 106 275 -768
2017-09-12 18:50:48 GMT 43.26425 5.14199 6,100 116 283 -832
2017-09-12 18:50:46 GMT 43.26532 5.13866 6,125 117 285 -832
2017-09-12 18:50:36 GMT 43.27156 5.12231 6,275 117 293 -1088
2017-09-12 18:50:27 GMT 43.27721 5.10724 6,475 117 299 -1472
2017-09-12 18:50:25 GMT 43.27849 5.10398 6,525 117 300 -1600
2017-09-12 18:50:15 GMT 43.28464 5.08857 6,850 116 300 -1728
2017-09-12 18:50:04 GMT 43.29153 5.06973 7,100 116 303 -1152
2017-09-12 18:49:54 GMT 43.29810 5.05083 7,325 116 306 -1664
2017-09-12 18:49:43 GMT 43.30466 5.03344 7,650 116 305 -1600
2017-09-12 18:49:33 GMT 43.31131 5.01411 7,925 115 306 -1600
2017-09-12 18:49:22 GMT 43.31767 4.99654 8,150 116 308 -896
2017-09-12 18:49:12 GMT 43.32435 4.97707 8,300 115 313 -1280
2017-09-12 18:49:01 GMT 43.33096 4.95908 8,525 115 316 -1216
2017-09-12 18:48:51 GMT 43.33767 4.94084 8,750 115 317 -1344
2017-09-12 18:48:40 GMT 43.34459 4.92098 9,025 115 320 -1728
2017-09-12 18:48:30 GMT 43.35126 4.90056 9,325 113 321 -1856
2017-09-12 18:48:28 GMT 43.35266 4.89683 9,400 111 321 -1728
2017-09-12 18:48:19 GMT 43.35713 4.88159 9,575 111 324 -1472
2017-09-12 18:48:08 GMT 43.36364 4.85864 9,800 111 325 -704
2017-09-12 18:47:58 GMT 43.36894 4.84114 10,000 111 330 -1728
2017-09-12 18:47:48 GMT 43.37491 4.81966 10,325 111 332 -2240
2017-09-12 18:47:37 GMT 43.38105 4.79978 10,575 111 340 -1088
2017-09-12 18:47:33 GMT 43.38417 4.78768 10,675 111 345 -1152
2017-09-12 18:47:27 GMT 43.38696 4.77951 10,775 111 349 -1216
2017-09-12 18:47:24 GMT 43.38906 4.77127 10,825 111 355 -1216
2017-09-12 18:47:16 GMT 43.39352 4.75650 10,975 111 359 -1280
2017-09-12 18:47:10 GMT 43.39753 4.74125 11,125 111 361 -1280
2017-09-12 18:47:05 GMT 43.40057 4.73044 11,275 111 369 -2240
2017-09-12 18:46:55 GMT 43.40656 4.71065 11,700 111 370 -3328
2017-09-12 18:46:53 GMT 43.40787 4.70620 11,800 111 372 -2496
2017-09-12 18:46:45 GMT 43.41307 4.68637 12,175 111 373 -2688
2017-09-12 18:46:43 GMT 43.41467 4.68190 12,275 111 373 -2688
2017-09-12 18:46:34 GMT 43.41983 4.66180 12,650 111 376 -2816
2017-09-12 18:46:32 GMT 43.42109 4.65748 12,750 110 377 -2816
2017-09-12 18:46:23 GMT 43.42635 4.63943 13,125 111 379 -2880
2017-09-12 18:46:13 GMT 43.43286 4.61707 13,625 110 380 -3200
2017-09-12 18:46:12 GMT 43.43358 4.61477 13,700 110 380 -3264
2017-09-12 18:46:03 GMT 43.43944 4.59203 14,175 111 380 -2880
2017-09-12 18:46:03 GMT 43.43944 4.59203 14,175 111 380 -2880
2017-09-12 18:45:52 GMT 43.44635 4.56955 14,600 111 384 -2368
2017-09-12 18:45:42 GMT 43.45316 4.54448 15,025 111 387 -2752
2017-09-12 18:45:31 GMT 43.46013 4.51909 15,525 111 390 -2880
2017-09-12 18:45:21 GMT 43.46704 4.49583 16,050 110 392 -3200
2017-09-12 18:45:10 GMT 43.47351 4.46974 16,550 109 396 -2816
2017-09-12 18:45:08 GMT 43.47441 4.46741 16,625 109 395 -2880
2017-09-12 18:45:00 GMT 43.47970 4.44606 17,025 109 397 -3136
2017-09-12 18:44:58 GMT 43.48178 4.43886 17,200 109 398 -3072
2017-09-12 18:44:51 GMT 43.48526 4.42430 17,475 109 400 -2880
2017-09-12 18:44:48 GMT 43.48773 4.41484 17,650 109 401 -2944
2017-09-12 18:44:39 GMT 43.49249 4.39536 18,050 109 404 -2880
2017-09-12 18:44:37 GMT 43.49382 4.39063 18,150 109 404 -2752
2017-09-12 18:44:30 GMT 43.49822 4.37354 18,475 109 406 -3072
2017-09-12 18:44:27 GMT 43.50083 4.36353 18,675 109 408 -2880
2017-09-12 18:44:20 GMT 43.50446 4.34882 18,950 109 410 -2880
2017-09-12 18:44:18 GMT 43.50567 4.34385 19,050 109 410 -3008
2017-09-12 18:44:16 GMT 43.50764 4.33647 19,200 109 411 -3008
2017-09-12 18:44:09 GMT 43.51098 4.32423 19,450 109 413 -2880
2017-09-12 18:44:07 GMT 43.51228 4.31920 19,550 109 413 -2880
2017-09-12 18:44:05 GMT 43.51520 4.30670 19,775 109 415 -3008
2017-09-12 18:43:59 GMT 43.51740 4.29919 19,925 109 416 -2944
2017-09-12 18:43:57 GMT 43.51886 4.29169 20,050 109 417 -2880
2017-09-12 18:43:52 GMT 43.52206 4.27918 20,275 109 419 -2880
2017-09-12 18:43:48 GMT 43.52431 4.27170 20,450 109 420 -2944
2017-09-12 18:43:46 GMT 43.52568 4.26646 20,550 109 420 -2944
2017-09-12 18:43:41 GMT 43.52911 4.25133 20,800 109 422 -2944
2017-09-12 18:43:38 GMT 43.53114 4.24360 20,950 109 423 -2944
2017-09-12 18:43:36 GMT 43.53244 4.23869 21,025 109 424 -2944
2017-09-12 18:43:32 GMT 43.53630 4.22333 21,325 109 426 -3008
2017-09-12 18:43:27 GMT 43.53813 4.21805 21,450 109 427 -2944
2017-09-12 18:43:24 GMT 43.53973 4.21038 21,575 109 427 -2880
2017-09-12 18:43:19 GMT 43.54306 4.19743 21,800 109 429 -2944
2017-09-12 18:43:17 GMT 43.54468 4.18969 21,925 109 430 -2944
2017-09-12 18:43:15 GMT 43.54623 4.18464 22,025 109 431 -2880
2017-09-12 18:43:07 GMT 43.55118 4.16382 22,425 108 432 -3328
2017-09-12 18:43:04 GMT 43.55316 4.15584 22,575 108 433 -3200
2017-09-12 18:42:56 GMT 43.55814 4.13757 22,925 109 437 -2752
2017-09-12 18:42:53 GMT 43.56000 4.12975 23,050 111 439 -3136
2017-09-12 18:42:48 GMT 43.56422 4.11668 23,350 116 445 -2688
2017-09-12 18:42:46 GMT 43.56605 4.10902 23,450 114 443 -3136
2017-09-12 18:42:42 GMT 43.56917 4.10122 23,625 116 445 -2688
2017-09-12 18:42:36 GMT 43.57587 4.08397 23,925 121 451 -3008
2017-09-12 18:42:35 GMT 43.57788 4.07894 24,000 121 450 -3072
2017-09-12 18:42:32 GMT 43.57956 4.07650 24,075 123 452 -3072
2017-09-12 18:42:24 GMT 43.58922 4.05772 24,450 128 457 -2688
2017-09-12 18:42:22 GMT 43.59206 4.05319 24,550 129 459 -2624
2017-09-12 18:42:15 GMT 43.60213 4.03774 24,875 134 463 -3008
2017-09-12 18:42:13 GMT 43.60492 4.03349 24,975 135 463 -3008
2017-09-12 18:42:11 GMT 43.60876 4.02738 25,100 137 464 -3008
2017-09-12 18:42:04 GMT 43.62140 4.01413 25,475 141 467 -3200
2017-09-12 18:42:01 GMT 43.62457 4.01034 25,550 141 469 -3136
2017-09-12 18:41:53 GMT 43.64086 3.99183 25,975 141 473 -2752
2017-09-12 18:41:50 GMT 43.64337 3.98983 26,050 141 474 -2880
2017-09-12 18:41:44 GMT 43.65408 3.97849 26,350 141 477 -2880
2017-09-12 18:41:40 GMT 43.66111 3.96920 26,525 141 478 -2816
2017-09-12 18:41:34 GMT 43.67214 3.95783 26,825 141 482 -3072
2017-09-12 18:41:29 GMT 43.68045 3.94831 27,050 142 484 -2944
2017-09-12 18:41:23 GMT 43.69167 3.93694 27,375 142 487 -3072
2017-09-12 18:41:19 GMT 43.69890 3.92934 27,575 142 488 -3072
2017-09-12 18:41:13 GMT 43.70975 3.91803 27,875 142 490 -3264
2017-09-12 18:41:08 GMT 43.71865 3.90852 28,125 142 493 -3072
2017-09-12 18:41:03 GMT 43.72787 3.89900 28,375 142 495 -3200
2017-09-12 18:40:58 GMT 43.73690 3.88929 28,650 142 497 -3264
2017-09-12 18:40:51 GMT 43.74872 3.87772 28,975 142 499 -3136
2017-09-12 18:40:47 GMT 43.75603 3.86993 29,200 142 501 -3328
2017-09-12 18:40:41 GMT 43.76678 3.85810 29,500 142 502 -3200
2017-09-12 18:40:36 GMT 43.77649 3.84835 29,750 142 505 -2944
2017-09-12 18:40:31 GMT 43.78522 3.83854 29,975 142 506 -3264
2017-09-12 18:40:26 GMT 43.79462 3.82861 30,225 142 508 -2752
2017-09-12 18:40:26 GMT 43.79639 3.82658 30,275 142 508 -2752
2017-09-12 18:40:21 GMT 43.80440 3.81873 30,475 142 509 -2688
2017-09-12 18:40:14 GMT 43.81714 3.80523 30,750 143 509 -2368
2017-09-12 18:40:11 GMT 43.82396 3.79757 30,875 146 510 -1856
2017-09-12 18:40:05 GMT 43.83591 3.78722 31,075 150 510 -1856
2017-09-12 18:40:00 GMT 43.84611 3.77943 31,225 152 510 -1920
2017-09-12 18:39:55 GMT 43.85706 3.77195 31,400 152 512 -1920
2017-09-12 18:39:49 GMT 43.86813 3.76419 31,575 152 513 -1984
2017-09-12 18:39:44 GMT 43.87986 3.75510 31,775 152 514 -2048
2017-09-12 18:39:43 GMT 43.88102 3.75517 31,800 152 514 -2048
2017-09-12 18:39:39 GMT 43.88908 3.74895 31,925 152 515 -2048
2017-09-12 18:39:34 GMT 43.90151 3.73980 32,125 152 516 -2112
2017-09-12 18:39:33 GMT 43.90274 3.73810 32,150 152 516 -2112
2017-09-12 18:39:31 GMT 43.90686 3.73659 32,225 152 516 -2048
2017-09-12 18:39:29 GMT 43.91035 3.73346 32,275 152 516 -2048
2017-09-12 18:39:26 GMT 43.91785 3.72737 32,400 152 517 -2112
2017-09-12 18:39:23 GMT 43.92476 3.72277 32,525 152 518 -2048
2017-09-12 18:39:19 GMT 43.93245 3.71651 32,625 152 518 -2048
2017-09-12 18:39:14 GMT 43.94247 3.71025 32,775 151 521 -1856
2017-09-12 18:39:12 GMT 43.94682 3.70718 32,850 151 521 -1856
2017-09-12 18:39:09 GMT 43.95428 3.70080 32,950 152 520 -1920
2017-09-12 18:39:06 GMT 43.96266 3.69460 33,075 152 520 -1856
2017-09-12 18:39:02 GMT 43.96820 3.69147 33,150 152 520 -1856
2017-09-12 18:39:01 GMT 43.97013 3.68990 33,175 152 520 -1856
2017-09-12 18:38:58 GMT 43.97635 3.68521 33,250 152 520 -1792
2017-09-12 18:38:52 GMT 43.99163 3.67434 33,475 152 521 -1856
2017-09-12 18:38:48 GMT 43.99814 3.66962 33,575 152 521 -1920
2017-09-12 18:38:44 GMT 44.00624 3.66337 33,675 152 521 -1920
2017-09-12 18:38:41 GMT 44.01366 3.65717 33,800 152 522 -1728
2017-09-12 18:38:38 GMT 44.02031 3.65243 33,875 152 522 -1472
2017-09-12 18:38:33 GMT 44.03055 3.64459 34,000 152 523 -1536
2017-09-12 18:38:30 GMT 44.03618 3.64139 34,075 152 524 -1536
2017-09-12 18:38:27 GMT 44.04303 3.63667 34,150 152 525 -1472
2017-09-12 18:38:24 GMT 44.05188 3.62894 34,275 152 526 -1536
2017-09-12 18:38:20 GMT 44.05839 3.62412 34,350 152 526 -1600
2017-09-12 18:38:17 GMT 44.06570 3.61942 34,450 152 526 -1600
2017-09-12 18:38:13 GMT 44.07404 3.61297 34,550 152 526 -1600
2017-09-12 18:38:10 GMT 44.08083 3.60829 34,625 152 526 -1600
2017-09-12 18:38:08 GMT 44.08422 3.60515 34,675 152 526 -1600
2017-09-12 18:38:06 GMT 44.08851 3.60195 34,725 152 526 -1600
2017-09-12 18:38:03 GMT 44.09735 3.59560 34,825 151 525 -1536
2017-09-12 18:37:59 GMT 44.10393 3.59080 34,900 151 525 -1536
2017-09-12 18:37:55 GMT 44.11118 3.58606 35,000 151 525 -1536
2017-09-12 18:37:48 GMT 44.12640 3.57490 35,175 151 525 -1536
2017-09-12 18:37:45 GMT 44.13287 3.57016 35,250 151 525 -1536
2017-09-12 18:37:41 GMT 44.14211 3.56219 35,350 152 525 -1536
2017-09-12 18:37:40 GMT 44.14521 3.56075 35,375 152 525 -1600
2017-09-12 18:37:37 GMT 44.15000 3.55748 35,450 152 525 -1600
2017-09-12 18:37:35 GMT 44.15524 3.55280 35,500 151 525 -1536
2017-09-12 18:37:30 GMT 44.16536 3.54648 35,625 152 526 -1536
2017-09-12 18:37:29 GMT 44.16957 3.54322 35,675 152 526 -1536
2017-09-12 18:37:27 GMT 44.17296 3.54002 35,700 152 526 -1536
2017-09-12 18:37:25 GMT 44.17735 3.53677 35,750 152 527 -1536
2017-09-12 18:37:20 GMT 44.18845 3.52890 35,875 151 527 -1536
2017-09-12 18:37:16 GMT 44.19651 3.52246 35,975 152 528 -1536
2017-09-12 18:37:14 GMT 44.19983 3.52099 36,000 152 528 -1536
2017-09-12 18:37:10 GMT 44.21085 3.51301 36,125 152 529 -1536
2017-09-12 18:37:06 GMT 44.21788 3.50658 36,225 152 529 -1536
2017-09-12 18:37:04 GMT 44.22234 3.50343 36,275 152 531 -1472
2017-09-12 18:36:59 GMT 44.23315 3.49542 36,375 152 532 -1472
2017-09-12 18:36:57 GMT 44.23851 3.49215 36,450 152 531 -1472
2017-09-12 18:36:55 GMT 44.24199 3.48894 36,475 152 532 -1472
2017-09-12 18:36:53 GMT 44.24525 3.48736 36,525 152 533 -1472
2017-09-12 18:36:48 GMT 44.25938 3.47619 36,675 152 534 -1472
2017-09-12 18:36:45 GMT 44.26382 3.47292 36,725 152 535 -1472
2017-09-12 18:36:43 GMT 44.26822 3.46972 36,775 152 535 -1408
2017-09-12 18:36:37 GMT 44.28319 3.45848 36,950 152 534 -1408
2017-09-12 18:36:34 GMT 44.28752 3.45513 36,975 152 534 -1408
2017-09-12 18:36:32 GMT 44.29074 3.45357 37,025 152 534 -1408
2017-09-12 18:36:26 GMT 44.30665 3.44227 37,200 151 532 -1472
2017-09-12 18:36:24 GMT 44.30977 3.43906 37,225 152 531 -1472
2017-09-12 18:36:22 GMT 44.31363 3.43584 37,275 152 531 -1408
2017-09-12 18:36:17 GMT 44.32503 3.42787 37,400 152 531 -1408
2017-09-12 18:36:12 GMT 44.33607 3.41983 37,525 151 530 -1472
2017-09-12 18:36:05 GMT 44.35292 3.40697 37,700 151 528 -1472
2017-09-12 18:36:03 GMT 44.35533 3.40530 37,725 151 527 -1472
2017-09-12 18:36:01 GMT 44.35860 3.40368 37,775 151 527 -1472
2017-09-12 18:35:55 GMT 44.37264 3.39236 37,925 151 527 -1408
2017-09-12 18:35:52 GMT 44.37848 3.38767 38,000 151 526 -1472
2017-09-12 18:35:50 GMT 44.38281 3.38446 38,050 151 526 -1536
2017-09-12 18:35:45 GMT 44.39314 3.37796 38,175 151 525 -1408
2017-09-12 18:35:42 GMT 44.39955 3.37313 38,250 151 525 -1472
2017-09-12 18:35:40 GMT 44.40413 3.36825 38,300 151 525 -1472
2017-09-12 18:35:35 GMT 44.41544 3.36025 38,425 151 523 -1536
2017-09-12 18:35:33 GMT 44.42177 3.35552 38,500 151 522 -1472
2017-09-12 18:35:30 GMT 44.42514 3.35390 38,550 151 522 -1536
2017-09-12 18:35:24 GMT 44.43974 3.34272 38,700 151 520 -1088
2017-09-12 18:35:20 GMT 44.44691 3.33643 38,750 152 520 -1024
2017-09-12 18:35:14 GMT 44.46231 3.32533 38,900 152 522 -1088
2017-09-12 18:35:10 GMT 44.46771 3.32225 38,925 152 522 -1024
2017-09-12 18:35:08 GMT 44.47115 3.31911 38,950 151 523 -896
2017-09-12 18:35:02 GMT 44.48555 3.30796 39,000 152 524 64
2017-09-12 18:35:00 GMT 44.49016 3.30481 39,000 152 524 64
2017-09-12 18:34:58 GMT 44.49243 3.30316 39,000 152 524 64
2017-09-12 18:34:52 GMT 44.50873 3.29040 39,000 152 524 64
2017-09-12 18:34:50 GMT 44.51181 3.28886 39,000 152 524 64
2017-09-12 18:34:48 GMT 44.51506 3.28565 39,000 152 524 0
2017-09-12 18:34:40 GMT 44.53322 3.27292 39,000 151 523 -64
2017-09-12 18:34:38 GMT 44.53667 3.26977 39,000 151 523 -64
2017-09-12 18:34:30 GMT 44.55370 3.25698 39,000 151 524 128
2017-09-12 18:34:27 GMT 44.55878 3.25383 39,000 151 524 64
2017-09-12 18:34:17 GMT 44.58179 3.23606 39,000 151 524 0
2017-09-12 18:34:08 GMT 44.60316 3.21997 39,000 151 524 -64
2017-09-12 18:34:06 GMT 44.60431 3.22011 39,000 151 524 -64
2017-09-12 18:33:57 GMT 44.62404 3.20395 39,000 151 524 0
2017-09-12 18:33:55 GMT 44.62740 3.20238 39,000 151 524 0
2017-09-12 18:33:48 GMT 44.64272 3.19120 39,000 151 523 0
2017-09-12 18:33:45 GMT 44.64937 3.18630 39,000 151 523 64
2017-09-12 18:33:38 GMT 44.66748 3.17230 39,000 158 524 -64
2017-09-12 18:33:36 GMT 44.66957 3.17089 39,000 154 524 -64
2017-09-12 18:33:34 GMT 44.67297 3.16936 39,000 155 523 -64
2017-09-12 18:33:24 GMT 44.69611 3.15435 39,000 157 523 -64
2017-09-12 18:33:15 GMT 44.71864 3.14256 39,000 160 523 0
2017-09-12 18:33:13 GMT 44.71957 3.14256 39,000 161 523 0
2017-09-12 18:33:03 GMT 44.74429 3.13156 39,000 164 521 0
2017-09-12 18:32:53 GMT 44.76732 3.12345 39,000 168 520 64
2017-09-12 18:32:51 GMT 44.77115 3.12280 39,000 168 520 64
2017-09-12 18:32:42 GMT 44.79284 3.11677 39,000 170 518 -64
2017-09-12 18:32:32 GMT 44.81756 3.11094 39,000 170 518 -64
2017-09-12 18:32:23 GMT 44.83800 3.10560 39,000 170 518 0
2017-09-12 18:32:21 GMT 44.84244 3.10501 39,000 170 518 64
2017-09-12 18:32:11 GMT 44.86615 3.09867 39,000 170 518 0
2017-09-12 18:32:01 GMT 44.89014 3.09278 39,000 170 518 -64
2017-09-12 18:32:01 GMT 44.89014 3.09278 39,000 170 518 -64
2017-09-12 18:31:58 GMT 44.89613 3.09160 39,000 170 518 0
2017-09-12 18:31:50 GMT 44.91508 3.08690 39,000 170 519 64
2017-09-12 18:31:49 GMT 44.91718 3.08629 39,000 170 519 64
2017-09-12 18:31:41 GMT 44.93765 3.08101 39,000 169 521 0
2017-09-12 18:31:39 GMT 44.94214 3.07983 39,000 169 520 0
2017-09-12 18:31:36 GMT 44.94855 3.07866 39,000 170 519 0
2017-09-12 18:31:33 GMT 44.95587 3.07691 39,000 169 520 0
2017-09-12 18:31:29 GMT 44.96617 3.07388 39,000 169 520 0
2017-09-12 18:31:29 GMT 44.96617 3.07388 39,000 169 520 0
2017-09-12 18:31:27 GMT 44.96955 3.07336 39,000 169 520 0
2017-09-12 18:31:18 GMT 44.99199 3.06733 39,000 169 521 64
2017-09-12 18:31:09 GMT 45.01578 3.06143 39,000 169 521 0
2017-09-12 18:31:07 GMT 45.01799 3.06080 39,000 169 521 0
2017-09-12 18:30:57 GMT 45.04161 3.05485 39,000 169 521 64
2017-09-12 18:30:55 GMT 45.04530 3.05427 39,000 169 521 0
2017-09-12 18:30:50 GMT 45.05777 3.05126 39,000 169 521 0
2017-09-12 18:30:48 GMT 45.06298 3.04951 39,000 169 521 0
2017-09-12 18:30:46 GMT 45.06783 3.04824 39,000 169 521 0
2017-09-12 18:30:35 GMT 45.09227 3.04221 39,000 169 520 64
2017-09-12 18:30:32 GMT 45.10130 3.03980 39,000 169 521 64
2017-09-12 18:30:30 GMT 45.10647 3.03866 39,000 169 521 64
2017-09-12 18:30:25 GMT 45.11787 3.03563 39,000 169 521 0
2017-09-12 18:30:20 GMT 45.13016 3.03263 39,000 169 521 0
2017-09-12 18:30:14 GMT 45.14333 3.02908 39,000 169 521 64
2017-09-12 18:30:09 GMT 45.15724 3.02608 39,000 169 521 64
2017-09-12 18:30:05 GMT 45.16548 3.02373 39,000 169 521 128
2017-09-12 18:30:04 GMT 45.16796 3.02305 39,000 169 521 64
2017-09-12 18:30:02 GMT 45.17289 3.02191 39,000 169 521 128
2017-09-12 18:30:00 GMT 45.17815 3.02070 39,000 169 521 64
2017-09-12 18:29:57 GMT 45.18323 3.01957 39,000 170 521 -64
2017-09-12 18:29:54 GMT 45.19061 3.01777 39,000 170 521 64
2017-09-12 18:29:52 GMT 45.19557 3.01601 39,000 170 521 64
2017-09-12 18:29:50 GMT 45.20050 3.01474 39,000 170 521 0
2017-09-12 18:29:44 GMT 45.21489 3.01126 39,000 170 521 -64
2017-09-12 18:29:43 GMT 45.21698 3.01065 39,000 170 521 0
2017-09-12 18:29:42 GMT 45.21826 3.01065 39,000 170 521 -64
2017-09-12 18:29:40 GMT 45.22620 3.00885 39,000 170 521 64
2017-09-12 18:29:37 GMT 45.23112 3.00770 39,000 170 521 64
2017-09-12 18:29:32 GMT 45.24361 3.00416 39,000 170 521 0
2017-09-12 18:29:22 GMT 45.26730 2.99826 39,000 170 521 0
2017-09-12 18:29:20 GMT 45.27196 2.99706 39,000 170 521 -64
2017-09-12 18:29:13 GMT 45.28903 2.99292 39,000 170 521 64
2017-09-12 18:29:11 GMT 45.29347 2.99168 39,000 170 521 0
2017-09-12 18:29:07 GMT 45.30501 2.98875 39,000 169 521 0
2017-09-12 18:29:05 GMT 45.30757 2.98815 39,000 170 521 0
2017-09-12 18:29:02 GMT 45.31483 2.98634 39,000 169 521 -128
2017-09-12 18:29:00 GMT 45.31958 2.98513 39,000 169 521 -128
2017-09-12 18:28:58 GMT 45.32286 2.98455 39,000 169 521 -64
2017-09-12 18:28:56 GMT 45.32831 2.98338 39,000 169 521 -64
2017-09-12 18:28:52 GMT 45.33923 2.98038 39,000 169 521 64
2017-09-12 18:28:51 GMT 45.34149 2.97985 39,000 169 521 64
2017-09-12 18:28:50 GMT 45.34268 2.97978 39,000 169 521 0
2017-09-12 18:28:48 GMT 45.34909 2.97803 39,000 169 521 0
2017-09-12 18:28:43 GMT 45.36269 2.97441 39,000 170 521 64
2017-09-12 18:28:41 GMT 45.36530 2.97383 39,000 170 521 64
2017-09-12 18:28:39 GMT 45.36790 2.97328 39,000 170 521 64
2017-09-12 18:28:37 GMT 45.37491 2.97141 39,000 170 521 0
2017-09-12 18:28:36 GMT 45.37491 2.97141 39,000 170 521 0
2017-09-12 18:28:32 GMT 45.38512 2.96906 39,000 170 521 0
2017-09-12 18:28:29 GMT 45.39262 2.96725 39,000 170 521 0
2017-09-12 18:28:29 GMT 45.39262 2.96725 39,000 170 521 0
2017-09-12 18:28:27 GMT 45.39967 2.96546 39,000 169 521 0
2017-09-12 18:28:20 GMT 45.41501 2.96128 39,000 169 521 64
2017-09-12 18:28:17 GMT 45.42197 2.95951 39,000 169 521 64
2017-09-12 18:28:13 GMT 45.43037 2.95773 39,000 169 521 64
2017-09-12 18:28:10 GMT 45.43997 2.95532 39,000 169 521 0
2017-09-12 18:28:08 GMT 45.44229 2.95473 39,000 169 521 0
2017-09-12 18:28:05 GMT 45.44955 2.95291 39,000 169 521 64
2017-09-12 18:27:59 GMT 45.46550 2.94878 39,000 169 521 64
2017-09-12 18:27:57 GMT 45.46939 2.94754 39,000 169 521 64
2017-09-12 18:27:53 GMT 45.47805 2.94574 39,000 170 521 64
2017-09-12 18:27:49 GMT 45.48949 2.94277 39,000 170 522 64
2017-09-12 18:27:47 GMT 45.49145 2.94219 39,000 170 522 64
2017-09-12 18:27:44 GMT 45.49851 2.94035 39,000 170 522 64
2017-09-12 18:27:37 GMT 45.51668 2.93557 39,000 169 522 0
2017-09-12 18:27:35 GMT 45.52217 2.93440 39,000 169 522 0
2017-09-12 18:27:29 GMT 45.53632 2.93073 39,000 169 522 64
2017-09-12 18:27:26 GMT 45.54368 2.92893 39,000 169 523 64
2017-09-12 18:27:23 GMT 45.54885 2.92772 39,000 169 523 64
2017-09-12 18:27:19 GMT 45.55839 2.92532 39,000 169 523 64
2017-09-12 18:27:16 GMT 45.56696 2.92284 39,000 169 523 0
2017-09-12 18:27:14 GMT 45.57019 2.92223 39,000 169 523 0
2017-09-12 18:27:12 GMT 45.57495 2.92102 39,000 169 523 0
2017-09-12 18:27:06 GMT 45.59205 2.91666 39,000 169 523 -64
2017-09-12 18:27:04 GMT 45.59545 2.91550 39,000 169 523 0
2017-09-12 18:26:55 GMT 45.61684 2.90990 39,000 169 523 0
2017-09-12 18:26:53 GMT 45.62141 2.90876 39,000 169 523 64
2017-09-12 18:26:47 GMT 45.63497 2.90568 39,000 169 522 64
2017-09-12 18:26:45 GMT 45.64215 2.90387 39,000 169 522 0
2017-09-12 18:26:44 GMT 45.64215 2.90387 39,000 169 522 0
2017-09-12 18:26:41 GMT 45.65053 2.90140 39,000 169 522 0
2017-09-12 18:26:41 GMT 45.65304 2.90080 39,000 169 522 64
2017-09-12 18:26:33 GMT 45.66943 2.89657 39,000 169 522 -64
2017-09-12 18:26:22 GMT 45.69535 2.88988 39,000 169 522 64
2017-09-12 18:26:12 GMT 45.72040 2.88370 39,000 169 522 0
2017-09-12 18:26:10 GMT 45.72407 2.88247 39,000 169 521 64
2017-09-12 18:26:01 GMT 45.74538 2.87701 39,000 169 522 -128
2017-09-12 18:25:57 GMT 45.75494 2.87453 39,000 169 521 64
2017-09-12 18:25:51 GMT 45.76769 2.87148 39,000 169 521 64
2017-09-12 18:25:49 GMT 45.77335 2.86971 39,000 169 520 0
2017-09-12 18:25:42 GMT 45.79253 2.86482 39,000 169 520 128
2017-09-12 18:25:40 GMT 45.79474 2.86427 39,000 169 520 128
2017-09-12 18:25:39 GMT 45.79774 2.86361 39,000 169 520 128
2017-09-12 18:25:38 GMT 45.79981 2.86304 39,000 169 520 64
2017-09-12 18:25:29 GMT 45.82509 2.85693 39,000 169 519 192
2017-09-12 18:25:27 GMT 45.82509 2.85693 39,000 169 519 128
2017-09-12 18:25:19 GMT 45.84753 2.85081 39,000 169 517 0
2017-09-12 18:25:10 GMT 45.86564 2.84587 39,000 169 517 128
2017-09-12 18:25:08 GMT 45.87043 2.84463 39,000 169 517 128
2017-09-12 18:25:03 GMT 45.88399 2.84157 39,000 169 516 -128
2017-09-12 18:24:59 GMT 45.89145 2.83909 39,025 169 516 64
2017-09-12 18:24:57 GMT 45.89860 2.83729 39,000 169 516 320
2017-09-12 18:24:55 GMT 45.90297 2.83605 39,000 169 516 192
2017-09-12 18:24:48 GMT 45.91695 2.83300 39,000 169 516 -192
2017-09-12 18:24:46 GMT 45.92183 2.83118 39,000 169 516 64
2017-09-12 18:24:43 GMT 45.92981 2.82938 39,000 169 516 128
2017-09-12 18:24:38 GMT 45.94096 2.82630 39,000 169 516 128
2017-09-12 18:24:36 GMT 45.94473 2.82570 39,000 169 515 -64
2017-09-12 18:24:34 GMT 45.95046 2.82390 39,000 169 515 -192
2017-09-12 18:24:27 GMT 45.96628 2.82026 39,025 169 514 64
2017-09-12 18:24:26 GMT 45.96899 2.81909 39,025 169 511 192
2017-09-12 18:24:25 GMT 45.97033 2.81909 39,025 169 514 128
2017-09-12 18:24:23 GMT 45.97646 2.81732 39,000 169 513 192
2017-09-12 18:24:15 GMT 45.99481 2.81250 39,000 169 513 -192
2017-09-12 18:24:11 GMT 46.00424 2.81009 39,025 169 512 -192
2017-09-12 18:24:06 GMT 46.01563 2.80708 38,975 169 513 192
2017-09-12 18:24:04 GMT 46.01939 2.80647 38,975 169 513 0
2017-09-12 18:24:02 GMT 46.02517 2.80460 39,000 169 512 -256
2017-09-12 18:23:55 GMT 46.04030 2.80103 39,000 169 512 448
2017-09-12 18:23:53 GMT 46.04501 2.79980 39,000 169 512 512
2017-09-12 18:23:50 GMT 46.05315 2.79739 38,975 169 512 512
2017-09-12 18:23:45 GMT 46.06693 2.79376 39,025 169 512 -320
2017-09-12 18:23:43 GMT 46.06800 2.79376 39,025 169 511 192
2017-09-12 18:23:39 GMT 46.07867 2.79073 39,000 169 512 512
2017-09-12 18:23:36 GMT 46.08713 2.78895 38,950 169 512 -128
2017-09-12 18:23:35 GMT 46.08847 2.78825 38,975 169 512 128
2017-09-12 18:23:33 GMT 46.09179 2.78771 38,975 169 512 -384
2017-09-12 18:23:28 GMT 46.10344 2.78470 39,025 169 512 -192
2017-09-12 18:23:26 GMT 46.10939 2.78284 39,025 169 512 384
2017-09-12 18:23:22 GMT 46.11884 2.78043 38,950 169 513 320
2017-09-12 18:23:17 GMT 46.13049 2.77740 39,025 169 512 -256
2017-09-12 18:23:12 GMT 46.14183 2.77432 39,000 169 512 256
2017-09-12 18:23:05 GMT 46.15715 2.77068 39,000 169 512 -64
2017-09-12 18:23:01 GMT 46.16599 2.76828 39,000 169 512 -192
2017-09-12 18:22:57 GMT 46.17600 2.76588 39,000 169 512 -64
2017-09-12 18:22:54 GMT 46.18286 2.76400 39,000 169 513 0
2017-09-12 18:22:51 GMT 46.19025 2.76224 39,000 169 513 0
2017-09-12 18:22:46 GMT 46.20200 2.75918 39,000 169 511 -64
2017-09-12 18:22:43 GMT 46.20878 2.75736 39,000 169 511 -64
2017-09-12 18:22:41 GMT 46.21431 2.75556 39,000 169 511 64
2017-09-12 18:22:38 GMT 46.21953 2.75435 39,000 169 511 64
2017-09-12 18:22:36 GMT 46.22520 2.75321 39,000 169 511 -64
2017-09-12 18:22:34 GMT 46.23089 2.75139 39,000 169 511 -64
2017-09-12 18:22:32 GMT 46.23418 2.75080 39,000 169 511 0
2017-09-12 18:22:30 GMT 46.23853 2.74960 39,000 169 511 0
2017-09-12 18:22:22 GMT 46.25863 2.74418 39,000 169 510 0
2017-09-12 18:22:20 GMT 46.26347 2.74294 39,000 169 510 64
2017-09-12 18:22:15 GMT 46.27344 2.74054 39,000 169 510 64
2017-09-12 18:22:11 GMT 46.28407 2.73754 39,000 169 510 0
2017-09-12 18:22:09 GMT 46.28787 2.73697 39,000 169 510 64
2017-09-12 18:22:01 GMT 46.30710 2.73158 39,000 169 510 0
2017-09-12 18:21:59 GMT 46.31138 2.73093 39,000 169 510 -64
2017-09-12 18:21:53 GMT 46.32441 2.72736 39,000 169 510 0
2017-09-12 18:21:51 GMT 46.33118 2.72555 39,000 169 510 0
2017-09-12 18:21:48 GMT 46.33717 2.72372 39,000 169 510 64
2017-09-12 18:21:46 GMT 46.34192 2.72255 39,000 169 510 0
2017-09-12 18:21:43 GMT 46.34880 2.72072 39,000 169 510 0
2017-09-12 18:21:38 GMT 46.36040 2.71774 39,000 169 510 0
2017-09-12 18:21:36 GMT 46.36496 2.71651 39,000 169 510 64
2017-09-12 18:21:33 GMT 46.37157 2.71534 39,000 169 510 0
2017-09-12 18:21:30 GMT 46.38135 2.71228 39,000 169 510 0
2017-09-12 18:21:27 GMT 46.38484 2.71170 39,000 169 511 0
2017-09-12 18:21:19 GMT 46.40492 2.70619 39,000 169 511 0
2017-09-12 18:21:17 GMT 46.40950 2.70498 39,000 169 511 0
2017-09-12 18:21:08 GMT 46.42946 2.70009 39,000 169 511 0
2017-09-12 18:21:06 GMT 46.43468 2.69882 39,000 169 511 0
2017-09-12 18:20:56 GMT 46.45858 2.69206 39,000 169 512 -64
2017-09-12 18:20:51 GMT 46.46956 2.68952 39,000 169 512 0
2017-09-12 18:20:48 GMT 46.47972 2.68636 39,000 169 512 0
2017-09-12 18:20:47 GMT 46.48171 2.68568 39,000 169 512 0
2017-09-12 18:20:45 GMT 46.48416 2.68508 39,000 169 512 0
2017-09-12 18:20:45 GMT 46.48302 2.68574 39,000 169 512 64
2017-09-12 18:20:39 GMT 46.49749 2.68190 39,000 169 512 0
2017-09-12 18:20:36 GMT 46.50503 2.67936 39,000 169 512 0
2017-09-12 18:20:34 GMT 46.50856 2.67872 39,000 169 512 64
2017-09-12 18:20:30 GMT 46.51951 2.67551 39,000 169 512 0
2017-09-12 18:20:26 GMT 46.53062 2.67229 39,000 169 512 0
2017-09-12 18:20:25 GMT 46.52966 2.67297 39,000 169 512 0
2017-09-12 18:20:25 GMT 46.53168 2.67236 39,000 169 512 64
2017-09-12 18:20:23 GMT 46.53497 2.67109 39,000 169 512 64
2017-09-12 18:20:18 GMT 46.54894 2.66720 39,000 169 512 64
2017-09-12 18:20:14 GMT 46.55638 2.66528 39,000 169 513 0
2017-09-12 18:20:10 GMT 46.56737 2.66267 39,000 169 514 0
2017-09-12 18:20:05 GMT 46.57704 2.65943 39,000 169 514 0
2017-09-12 18:20:03 GMT 46.58171 2.65815 39,000 169 514 0
2017-09-12 18:20:01 GMT 46.58679 2.65688 39,000 169 514 0
2017-09-12 18:19:58 GMT 46.59316 2.65491 39,000 169 514 0
2017-09-12 18:19:56 GMT 46.59786 2.65361 39,000 169 514 0
2017-09-12 18:19:52 GMT 46.60606 2.65172 39,000 169 514 0
2017-09-12 18:19:50 GMT 46.61156 2.65038 39,000 169 514 0
2017-09-12 18:19:46 GMT 46.62003 2.64777 39,000 169 515 0
2017-09-12 18:19:44 GMT 46.62803 2.64578 39,000 169 515 0
2017-09-12 18:19:42 GMT 46.63156 2.64455 39,000 169 515 0
2017-09-12 18:19:40 GMT 46.63513 2.64389 39,000 169 515 0
2017-09-12 18:19:37 GMT 46.64337 2.64127 39,000 169 515 0
2017-09-12 18:19:32 GMT 46.65405 2.63802 39,000 169 515 64
2017-09-12 18:19:29 GMT 46.66080 2.63665 39,000 169 516 64
2017-09-12 18:19:26 GMT 46.66777 2.63464 39,000 168 516 0
2017-09-12 18:19:23 GMT 46.67720 2.63196 39,000 169 516 0
2017-09-12 18:19:21 GMT 46.67961 2.63136 39,000 169 516 0
2017-09-12 18:19:18 GMT 46.68567 2.62942 39,000 168 516 64
2017-09-12 18:19:15 GMT 46.69455 2.62674 39,000 168 516 0
2017-09-12 18:19:11 GMT 46.70343 2.62412 39,000 169 516 64
2017-09-12 18:19:11 GMT 46.70343 2.62412 39,000 169 516 64
2017-09-12 18:19:06 GMT 46.71757 2.62011 39,000 168 517 0
2017-09-12 18:19:00 GMT 46.72801 2.61736 39,000 168 517 64
2017-09-12 18:19:00 GMT 46.73030 2.61674 39,000 168 517 64
2017-09-12 18:19:00 GMT 46.72801 2.61736 39,000 168 517 64
2017-09-12 18:18:55 GMT 46.74074 2.61334 39,000 168 517 0
2017-09-12 18:18:53 GMT 46.74455 2.61275 39,000 168 517 64
2017-09-12 18:18:49 GMT 46.75400 2.61001 39,000 168 517 64
2017-09-12 18:18:46 GMT 46.76247 2.60733 39,000 168 517 0
2017-09-12 18:18:45 GMT 46.76614 2.60671 39,000 168 518 -64
2017-09-12 18:18:42 GMT 46.77100 2.60530 39,000 168 518 -64
2017-09-12 18:18:39 GMT 46.77887 2.60269 39,000 168 518 -64
2017-09-12 18:18:39 GMT 46.77887 2.60269 39,000 168 518 -64
2017-09-12 18:18:34 GMT 46.79082 2.59937 39,000 168 518 64
2017-09-12 18:18:29 GMT 46.80235 2.59592 38,975 169 519 -128
2017-09-12 18:18:23 GMT 46.81636 2.59197 39,000 169 518 -128
2017-09-12 18:18:18 GMT 46.82712 2.58929 39,000 169 519 -192
2017-09-12 18:18:16 GMT 46.83253 2.58735 39,000 169 519 0
2017-09-12 18:18:12 GMT 46.84172 2.58527 39,000 169 519 256
2017-09-12 18:18:08 GMT 46.85241 2.58199 38,975 169 518 -256
2017-09-12 18:18:08 GMT 46.85110 2.58266 38,975 169 519 -128
2017-09-12 18:18:01 GMT 46.86726 2.57801 39,000 169 518 192
2017-09-12 18:17:57 GMT 46.87615 2.57538 38,975 169 518 960
2017-09-12 18:17:52 GMT 46.88946 2.57136 38,875 169 518 1024
2017-09-12 18:17:50 GMT 46.89458 2.57010 38,825 169 518 960
2017-09-12 18:17:48 GMT 46.90173 2.56805 38,800 169 518 960
2017-09-12 18:17:47 GMT 46.90064 2.56876 38,800 169 518 960
2017-09-12 18:17:44 GMT 46.90764 2.56675 38,750 169 518 960
2017-09-12 18:17:40 GMT 46.91693 2.56414 38,675 169 518 832
2017-09-12 18:17:36 GMT 46.92645 2.56146 38,625 169 518 896
2017-09-12 18:17:32 GMT 46.93690 2.55812 38,550 169 518 832
2017-09-12 18:17:30 GMT 46.94165 2.55679 38,525 169 518 896
2017-09-12 18:17:27 GMT 46.94984 2.55480 38,475 169 518 832
2017-09-12 18:17:25 GMT 46.95589 2.55284 38,425 169 518 832
2017-09-12 18:17:21 GMT 46.96367 2.55082 38,375 169 518 1024
2017-09-12 18:17:20 GMT 46.96367 2.55082 38,375 169 518 1024
2017-09-12 18:17:16 GMT 46.97526 2.54749 38,275 169 518 832
2017-09-12 18:17:14 GMT 46.97912 2.54608 38,250 169 518 896
2017-09-12 18:17:12 GMT 46.98401 2.54481 38,225 169 518 832
2017-09-12 18:17:08 GMT 46.99233 2.54279 38,175 169 517 960
2017-09-12 18:17:05 GMT 46.99947 2.54080 38,125 169 516 1344
2017-09-12 18:17:02 GMT 47.00761 2.53819 38,050 169 516 1280
2017-09-12 18:16:58 GMT 47.01599 2.53552 37,975 169 516 1408
2017-09-12 18:16:54 GMT 47.02549 2.53284 37,850 169 516 1600
2017-09-12 18:16:47 GMT 47.04167 2.52823 37,675 169 516 1536
2017-09-12 18:16:44 GMT 47.04886 2.52622 37,600 169 515 1600
2017-09-12 18:16:43 GMT 47.05100 2.52622 37,575 169 516 1728
2017-09-12 18:16:42 GMT 47.05495 2.52488 37,525 169 516 1792
2017-09-12 18:16:37 GMT 47.06552 2.52157 37,400 169 516 1600
2017-09-12 18:16:34 GMT 47.07395 2.51960 37,300 169 516 1664
2017-09-12 18:16:32 GMT 47.07693 2.51826 37,275 169 516 1664
2017-09-12 18:16:26 GMT 47.09122 2.51425 37,100 169 516 1728
2017-09-12 18:16:23 GMT 47.09843 2.51230 37,025 169 516 1664
2017-09-12 18:16:14 GMT 47.12069 2.50622 36,750 169 517 1728
2017-09-12 18:16:11 GMT 47.12645 2.50433 36,675 169 517 1728
2017-09-12 18:16:07 GMT 47.13748 2.50166 36,550 169 517 1728
2017-09-12 18:16:05 GMT 47.14087 2.50035 36,500 169 517 1728
2017-09-12 18:16:02 GMT 47.14691 2.49898 36,425 169 517 1472
2017-09-12 18:16:00 GMT 47.15267 2.49707 36,375 169 516 1472
2017-09-12 18:15:55 GMT 47.16263 2.49439 36,275 169 516 1600
2017-09-12 18:15:53 GMT 47.17007 2.49239 36,175 169 516 1664
2017-09-12 18:15:50 GMT 47.17636 2.49045 36,100 169 516 1664
2017-09-12 18:15:44 GMT 47.18954 2.48643 35,975 169 515 1344
2017-09-12 18:15:43 GMT 47.19200 2.48572 35,950 169 514 1216
2017-09-12 18:15:41 GMT 47.19731 2.48442 35,900 169 514 1216
2017-09-12 18:15:37 GMT 47.20647 2.48181 35,825 169 511 1152
2017-09-12 18:15:33 GMT 47.21430 2.47988 35,750 169 513 1280
2017-09-12 18:15:31 GMT 47.22043 2.47783 35,700 169 512 1280
2017-09-12 18:15:25 GMT 47.23293 2.47460 35,575 169 511 1152
2017-09-12 18:15:23 GMT 47.23892 2.47261 35,550 169 507 1024
2017-09-12 18:15:20 GMT 47.24487 2.47138 35,500 169 509 1088
2017-09-12 18:15:18 GMT 47.25270 2.46870 35,425 169 506 1088
2017-09-12 18:15:12 GMT 47.26305 2.46609 35,350 169 507 1024
2017-09-12 18:15:10 GMT 47.26863 2.46411 35,300 169 506 1088
2017-09-12 18:15:06 GMT 47.27915 2.46150 35,225 169 504 1280
2017-09-12 18:15:02 GMT 47.28744 2.45890 35,150 169 504 1216
2017-09-12 18:14:59 GMT 47.29395 2.45695 35,100 169 503 1088
2017-09-12 18:14:49 GMT 47.31729 2.45043 34,900 168 499 1344
2017-09-12 18:14:45 GMT 47.32631 2.44775 34,800 168 498 1280
2017-09-12 18:14:40 GMT 47.33601 2.44515 34,700 168 497 1408
2017-09-12 18:14:37 GMT 47.34321 2.44312 34,650 168 496 1600
2017-09-12 18:14:33 GMT 47.35254 2.43993 34,525 168 496 1536
2017-09-12 18:14:29 GMT 47.36160 2.43732 34,425 168 495 1728
2017-09-12 18:14:26 GMT 47.36733 2.43601 34,350 168 495 1792
2017-09-12 18:14:20 GMT 47.38264 2.43150 34,150 168 494 1920
2017-09-12 18:14:18 GMT 47.38605 2.43079 34,100 168 494 2048
2017-09-12 18:14:16 GMT 47.39333 2.42825 34,000 168 494 2240
2017-09-12 18:14:11 GMT 47.40184 2.42557 33,850 168 495 2624
2017-09-12 18:14:08 GMT 47.40936 2.42368 33,725 168 494 2368
2017-09-12 18:14:04 GMT 47.41764 2.42108 33,575 168 495 2624
2017-09-12 18:13:57 GMT 47.43249 2.41713 33,300 168 496 2496
2017-09-12 18:13:56 GMT 47.43594 2.41580 33,250 168 496 2432
2017-09-12 18:13:55 GMT 47.43715 2.41587 33,225 168 496 2432
2017-09-12 18:13:51 GMT 47.44858 2.41260 33,100 168 497 2624
2017-09-12 18:13:48 GMT 47.45686 2.40999 32,850 168 497 2752
2017-09-12 18:13:43 GMT 47.46520 2.40738 32,700 168 498 2688
2017-09-12 18:13:41 GMT 47.46899 2.40671 32,625 168 499 2176
2017-09-12 18:13:38 GMT 47.47681 2.40403 32,500 168 499 1728
2017-09-12 18:13:36 GMT 47.48170 2.40277 32,450 169 498 1856
2017-09-12 18:13:32 GMT 47.49120 2.40016 32,325 168 498 1856
2017-09-12 18:13:28 GMT 47.49806 2.39818 32,225 168 497 1728
2017-09-12 18:13:26 GMT 47.50456 2.39622 32,150 168 496 1664
2017-09-12 18:13:24 GMT 47.50671 2.39564 32,125 168 495 1792
2017-09-12 18:13:21 GMT 47.51382 2.39361 32,050 168 496 1728
2017-09-12 18:13:17 GMT 47.52493 2.39042 31,875 168 495 1984
2017-09-12 18:13:15 GMT 47.52709 2.38967 31,850 168 494 2112
2017-09-12 18:13:15 GMT 47.52837 2.38905 31,825 168 495 2048
2017-09-12 18:13:13 GMT 47.53170 2.38840 31,800 168 494 2112
2017-09-12 18:13:11 GMT 47.53626 2.38706 31,725 168 494 2112
2017-09-12 18:13:11 GMT 47.53626 2.38706 31,725 168 494 2112
2017-09-12 18:13:06 GMT 47.54957 2.38326 31,525 168 494 2240
2017-09-12 18:13:03 GMT 47.55390 2.38192 31,450 169 493 1984
2017-09-12 18:13:00 GMT 47.56265 2.37932 31,300 168 493 2176
2017-09-12 18:12:59 GMT 47.56499 2.37861 31,275 168 494 2112
2017-09-12 18:12:55 GMT 47.57332 2.37607 31,150 168 493 2240
2017-09-12 18:12:54 GMT 47.57446 2.37600 31,125 168 493 2240
2017-09-12 18:12:53 GMT 47.57676 2.37544 31,075 169 493 2112
2017-09-12 18:12:51 GMT 47.58123 2.37410 31,000 169 493 1984
2017-09-12 18:12:48 GMT 47.58896 2.37150 30,900 169 493 1920
2017-09-12 18:12:45 GMT 47.59813 2.36889 30,775 168 492 2048
2017-09-12 18:12:45 GMT 47.59694 2.36961 30,775 168 492 2048
2017-09-12 18:12:43 GMT 47.60287 2.36769 30,700 168 491 1984
2017-09-12 18:12:41 GMT 47.60716 2.36636 30,625 168 491 1984
2017-09-12 18:12:36 GMT 47.61832 2.36316 30,475 168 489 1856
2017-09-12 18:12:34 GMT 47.62029 2.36248 30,450 168 490 1920
2017-09-12 18:12:33 GMT 47.62029 2.36248 30,450 168 490 1920
2017-09-12 18:12:30 GMT 47.62913 2.35988 30,325 168 489 1856
2017-09-12 18:12:27 GMT 47.63594 2.35794 30,225 169 488 1792
2017-09-12 18:12:26 GMT 47.63816 2.35734 30,200 169 488 1792
2017-09-12 18:12:23 GMT 47.64366 2.35607 30,125 168 486 1984
2017-09-12 18:12:18 GMT 47.65420 2.35286 29,975 168 485 1920
2017-09-12 18:12:15 GMT 47.66272 2.35032 29,850 168 485 1792
2017-09-12 18:12:13 GMT 47.66707 2.34901 29,800 168 484 1600
2017-09-12 18:12:11 GMT 47.67137 2.34778 29,750 169 482 1792
2017-09-12 18:12:04 GMT 47.68904 2.34270 29,500 168 479 1792
2017-09-12 18:12:02 GMT 47.69109 2.34206 29,475 168 479 1792
2017-09-12 18:12:00 GMT 47.69537 2.34086 29,400 168 479 1792
2017-09-12 18:11:56 GMT 47.70232 2.33899 29,325 168 478 1856
2017-09-12 18:11:52 GMT 47.71288 2.33579 29,175 168 476 1856
2017-09-12 18:11:47 GMT 47.72200 2.33326 29,050 168 475 1792
2017-09-12 18:11:44 GMT 47.72982 2.33079 28,950 169 473 1920
2017-09-12 18:11:42 GMT 47.73637 2.32896 28,850 169 472 2048
2017-09-12 18:11:37 GMT 47.74521 2.32642 28,725 168 469 1792
2017-09-12 18:11:35 GMT 47.74765 2.32586 28,675 168 471 1920
2017-09-12 18:11:32 GMT 47.75654 2.32333 28,550 169 468 1920
2017-09-12 18:11:29 GMT 47.76078 2.32213 28,500 169 466 2240
2017-09-12 18:11:27 GMT 47.76539 2.32093 28,425 169 467 2240
2017-09-12 18:11:21 GMT 47.77968 2.31661 28,175 168 465 2048
2017-09-12 18:11:15 GMT 47.79121 2.31290 28,000 168 464 2048
2017-09-12 18:11:11 GMT 47.79973 2.31049 27,850 169 462 2496
2017-09-12 18:11:09 GMT 47.80263 2.30995 27,800 169 462 2496
2017-09-12 18:11:05 GMT 47.81120 2.30748 27,625 169 461 2432
2017-09-12 18:11:01 GMT 47.82060 2.30445 27,450 168 460 2368
2017-09-12 18:10:59 GMT 47.82491 2.30321 27,375 168 460 2368
2017-09-12 18:10:57 GMT 47.82980 2.30198 27,275 168 460 2432
2017-09-12 18:10:54 GMT 47.83606 2.30016 27,175 168 458 2624
2017-09-12 18:10:50 GMT 47.84546 2.29710 26,975 168 457 2624
2017-09-12 18:10:48 GMT 47.84656 2.29717 26,950 168 457 2624
2017-09-12 18:10:44 GMT 47.85530 2.29477 26,775 168 457 2624
2017-09-12 18:10:40 GMT 47.86368 2.29230 26,600 168 456 2560
2017-09-12 18:10:38 GMT 47.86981 2.29051 26,475 168 455 2496
2017-09-12 18:10:38 GMT 47.86981 2.29051 26,475 168 455 2560
2017-09-12 18:10:32 GMT 47.88007 2.28742 26,275 168 455 2560
2017-09-12 18:10:29 GMT 47.88849 2.28502 26,125 168 453 2560
2017-09-12 18:10:27 GMT 47.89256 2.28385 26,025 168 453 2560
2017-09-12 18:10:24 GMT 47.89830 2.28199 25,925 168 452 2496
2017-09-12 18:10:23 GMT 47.90062 2.28138 25,875 168 452 2496
2017-09-12 18:10:18 GMT 47.91211 2.27774 25,625 168 451 2752
2017-09-12 18:10:15 GMT 47.91605 2.27657 25,550 168 450 2752
2017-09-12 18:10:13 GMT 47.92053 2.27534 25,450 168 450 2496
2017-09-12 18:10:10 GMT 47.92679 2.27361 25,350 170 448 1856
2017-09-12 18:10:08 GMT 47.93172 2.27255 25,250 170 449 1984
2017-09-12 18:10:06 GMT 47.93683 2.27108 25,175 177 444 128
2017-09-12 18:10:03 GMT 47.94177 2.27019 25,125 172 447 1344
2017-09-12 18:09:59 GMT 47.94829 2.26903 25,075 173 447 768
2017-09-12 18:09:57 GMT 47.95546 2.26783 25,025 174 446 576
2017-09-12 18:09:57 GMT 47.95349 2.26813 25,025 174 446 576
2017-09-12 18:09:56 GMT 47.95450 2.26813 25,025 174 446 576
2017-09-12 18:09:53 GMT 47.96030 2.26734 25,000 175 446 512
2017-09-12 18:09:51 GMT 47.96435 2.26699 25,000 177 444 64
2017-09-12 18:09:49 GMT 47.96854 2.26670 25,000 177 444 64
2017-09-12 18:09:47 GMT 47.97595 2.26614 25,000 177 445 64
2017-09-12 18:09:45 GMT 47.97794 2.26600 25,000 177 445 0
2017-09-12 18:09:41 GMT 47.98479 2.26558 25,000 177 445 -64
2017-09-12 18:09:38 GMT 47.99173 2.26508 25,000 177 444 512
2017-09-12 18:09:38 GMT 47.99173 2.26508 25,000 177 445 128
2017-09-12 18:09:34 GMT 47.99890 2.26469 24,975 177 444 512
2017-09-12 18:09:34 GMT 47.99890 2.26469 24,975 177 444 640
2017-09-12 18:09:31 GMT 48.00764 2.26415 24,925 177 443 1024
2017-09-12 18:09:28 GMT 48.01176 2.26387 24,900 177 442 1088
2017-09-12 18:09:26 GMT 48.01845 2.26332 24,825 177 441 1472
2017-09-12 18:09:25 GMT 48.02063 2.26318 24,800 177 441 1600
2017-09-12 18:09:25 GMT 48.02063 2.26318 24,800 177 441 1600
2017-09-12 18:09:24 GMT 48.02063 2.26318 24,800 177 440 1856
2017-09-12 18:09:22 GMT 48.02482 2.26297 24,750 177 440 1856
2017-09-12 18:09:20 GMT 48.02774 2.26284 24,700 177 438 2240
2017-09-12 18:09:18 GMT 48.03316 2.26241 24,600 177 437 2560
2017-09-12 18:09:15 GMT 48.03955 2.26202 24,475 177 436 2624
2017-09-12 18:09:13 GMT 48.04470 2.26163 24,350 177 434 2560
2017-09-12 18:09:11 GMT 48.04774 2.26154 24,300 177 433 2624
2017-09-12 18:09:08 GMT 48.05336 2.26114 24,175 177 434 2560
2017-09-12 18:09:06 GMT 48.05566 2.26099 24,125 177 434 2560
2017-09-12 18:09:04 GMT 48.06155 2.26065 24,000 177 432 2624
2017-09-12 18:09:02 GMT 48.06468 2.26051 23,950 177 432 2688
2017-09-12 18:09:00 GMT 48.06853 2.26023 23,850 176 431 2752
2017-09-12 18:08:57 GMT 48.07471 2.25941 23,725 175 432 2816
2017-09-12 18:08:53 GMT 48.08548 2.25804 23,475 173 432 2688
2017-09-12 18:08:51 GMT 48.08661 2.25769 23,450 173 432 2688
2017-09-12 18:08:49 GMT 48.08972 2.25741 23,375 172 431 2432
2017-09-12 18:08:46 GMT 48.09645 2.25618 23,250 171 431 2368
2017-09-12 18:08:43 GMT 48.10300 2.25440 23,125 170 429 2624
2017-09-12 18:08:41 GMT 48.10615 2.25389 23,050 170 429 2752
2017-09-12 18:08:39 GMT 48.11124 2.25247 22,925 170 428 3008
2017-09-12 18:08:36 GMT 48.11531 2.25158 22,825 170 427 3008
2017-09-12 18:08:35 GMT 48.11760 2.25114 22,775 170 427 3008
2017-09-12 18:08:32 GMT 48.12689 2.24870 22,550 170 425 2880
2017-09-12 18:08:29 GMT 48.13010 2.24780 22,475 170 425 2880
2017-09-12 18:08:26 GMT 48.13590 2.24642 22,325 170 424 2944
2017-09-12 18:08:22 GMT 48.14381 2.24445 22,125 170 423 3072
2017-09-12 18:08:20 GMT 48.14671 2.24403 22,050 170 422 3136
2017-09-12 18:08:18 GMT 48.15140 2.24262 21,925 170 422 3008
2017-09-12 18:08:15 GMT 48.15680 2.24170 21,800 170 421 3008
2017-09-12 18:08:11 GMT 48.16484 2.23938 21,600 170 419 2752
2017-09-12 18:08:09 GMT 48.16974 2.23839 21,500 170 418 2816
2017-09-12 18:08:07 GMT 48.17258 2.23748 21,425 170 416 3008
2017-09-12 18:08:05 GMT 48.17542 2.23702 21,350 170 417 2880
2017-09-12 18:08:00 GMT 48.18711 2.23420 21,050 170 415 3200
2017-09-12 18:07:57 GMT 48.19074 2.23326 20,950 170 414 3200
2017-09-12 18:07:55 GMT 48.19537 2.23191 20,850 170 414 3072
2017-09-12 18:07:51 GMT 48.20425 2.23008 20,625 170 412 2688
2017-09-12 18:07:51 GMT 48.20531 2.22965 20,600 170 412 2560
2017-09-12 18:07:48 GMT 48.20978 2.22871 20,500 170 411 2496
2017-09-12 18:07:46 GMT 48.21419 2.22734 20,400 170 409 2560
2017-09-12 18:07:43 GMT 48.21790 2.22642 20,325 170 409 2560
2017-09-12 18:07:38 GMT 48.22737 2.22415 20,075 170 406 3520
2017-09-12 18:07:36 GMT 48.23016 2.22375 19,975 170 405 3520
2017-09-12 18:07:36 GMT 48.23286 2.22283 19,900 170 405 3520
2017-09-12 18:07:34 GMT 48.23360 2.22276 19,875 170 405 3520
2017-09-12 18:07:33 GMT 48.23785 2.22191 19,750 170 405 3520
2017-09-12 18:07:30 GMT 48.24362 2.22008 19,575 170 404 3584
2017-09-12 18:07:30 GMT 48.24362 2.22008 19,575 170 404 3584
2017-09-12 18:07:30 GMT 48.24362 2.22008 19,575 170 405 3520
2017-09-12 18:07:26 GMT 48.24902 2.21924 19,400 170 404 3520
2017-09-12 18:07:23 GMT 48.25488 2.21741 19,225 170 404 3392
2017-09-12 18:07:19 GMT 48.26276 2.21565 19,000 170 401 3200
2017-09-12 18:07:17 GMT 48.26769 2.21432 18,875 170 401 3264
2017-09-12 18:07:15 GMT 48.26862 2.21432 18,825 170 401 3264
2017-09-12 18:07:13 GMT 48.27234 2.21346 18,725 170 400 3264
2017-09-12 18:07:09 GMT 48.28189 2.21135 18,450 172 397 3136
2017-09-12 18:07:08 GMT 48.28296 2.21093 18,425 172 397 3136
2017-09-12 18:07:05 GMT 48.28761 2.21028 18,300 173 395 3008
2017-09-12 18:07:03 GMT 48.29196 2.20945 18,200 174 394 2880
2017-09-12 18:06:58 GMT 48.30102 2.20840 17,975 176 389 2880
2017-09-12 18:06:57 GMT 48.30102 2.20840 17,975 176 389 2880
2017-09-12 18:06:54 GMT 48.30991 2.20776 17,725 177 386 2944
2017-09-12 18:06:48 GMT 48.31987 2.20709 17,500 177 383 2240
2017-09-12 18:06:48 GMT 48.32080 2.20698 17,475 177 382 2112
2017-09-12 18:06:47 GMT 48.31987 2.20709 17,500 177 382 2112
2017-09-12 18:06:45 GMT 48.32437 2.20677 17,400 177 380 1984
2017-09-12 18:06:45 GMT 48.32437 2.20677 17,400 177 380 1984
2017-09-12 18:06:43 GMT 48.32776 2.20649 17,350 177 377 1984
2017-09-12 18:06:37 GMT 48.33879 2.20579 17,125 177 372 2496
2017-09-12 18:06:37 GMT 48.33879 2.20579 17,125 177 369 2944
2017-09-12 18:06:37 GMT 48.33980 2.20565 17,100 177 371 2624
2017-09-12 18:06:34 GMT 48.34209 2.20551 17,050 177 370 2752
2017-09-12 18:06:34 GMT 48.34209 2.20551 17,050 177 370 2752
2017-09-12 18:06:33 GMT 48.34389 2.20536 17,000 177 370 2816
2017-09-12 18:06:28 GMT 48.35284 2.20473 16,750 177 366 3392
2017-09-12 18:06:26 GMT 48.35693 2.20442 16,600 177 366 3200
2017-09-12 18:06:24 GMT 48.35995 2.20413 16,525 177 365 2944
2017-09-12 18:06:20 GMT 48.36722 2.20363 16,325 177 363 2752
2017-09-12 18:06:15 GMT 48.37573 2.20297 16,075 177 359 3264
2017-09-12 18:06:12 GMT 48.37997 2.20261 15,950 177 357 3328
2017-09-12 18:06:09 GMT 48.38548 2.20220 15,750 176 355 3520
2017-09-12 18:06:05 GMT 48.39139 2.20170 15,575 176 355 3520
2017-09-12 18:06:03 GMT 48.39473 2.20142 15,450 176 354 3584
2017-09-12 18:05:54 GMT 48.40972 2.20016 14,950 176 350 3200
2017-09-12 18:05:52 GMT 48.41307 2.19994 14,850 176 349 3328
2017-09-12 18:05:44 GMT 48.42573 2.19878 14,375 176 346 3712
2017-09-12 18:05:42 GMT 48.42908 2.19857 14,250 176 346 3648
2017-09-12 18:05:39 GMT 48.43382 2.19811 14,075 176 344 4032
2017-09-12 18:05:37 GMT 48.43671 2.19783 13,975 176 344 3840
2017-09-12 18:05:34 GMT 48.44221 2.19741 13,750 176 344 3904
2017-09-12 18:05:32 GMT 48.44659 2.19698 13,575 176 344 4032
2017-09-12 18:05:28 GMT 48.45124 2.19662 13,400 176 344 3520
2017-09-12 18:05:23 GMT 48.45946 2.19586 13,100 176 342 3456
2017-09-12 18:05:21 GMT 48.46275 2.19557 13,000 176 341 3904
2017-09-12 18:05:18 GMT 48.46660 2.19529 12,825 176 340 4160
2017-09-12 18:05:13 GMT 48.47488 2.19452 12,475 176 341 3904
2017-09-12 18:05:11 GMT 48.47727 2.19437 12,400 176 341 3712
2017-09-12 18:05:07 GMT 48.48491 2.19374 12,125 177 340 3136
2017-09-12 18:05:03 GMT 48.49132 2.19325 11,900 177 337 3328
2017-09-12 18:05:01 GMT 48.49471 2.19304 11,800 177 337 3456
2017-09-12 18:05:01 GMT 48.49551 2.19293 11,750 177 336 3776
2017-09-12 18:04:58 GMT 48.49800 2.19283 11,650 177 336 3712
2017-09-12 18:04:55 GMT 48.50268 2.19257 11,475 177 336 3776
2017-09-12 18:04:49 GMT 48.51185 2.19206 11,175 178 333 2240
2017-09-12 18:04:47 GMT 48.51562 2.19191 11,075 179 330 1984
2017-09-12 18:04:42 GMT 48.52410 2.19184 10,900 180 323 2368
2017-09-12 18:04:40 GMT 48.52560 2.19184 10,875 181 322 2368
2017-09-12 18:04:36 GMT 48.53229 2.19199 10,700 182 316 1408
2017-09-12 18:04:31 GMT 48.53952 2.19241 10,600 183 309 832
2017-09-12 18:04:29 GMT 48.54300 2.19262 10,575 184 302 704
2017-09-12 18:04:26 GMT 48.54630 2.19307 10,525 185 298 896
2017-09-12 18:04:21 GMT 48.55412 2.19388 10,400 185 290 2304
2017-09-12 18:04:19 GMT 48.55566 2.19401 10,375 186 289 2304
2017-09-12 18:04:17 GMT 48.55813 2.19437 10,300 186 287 2560
2017-09-12 18:04:15 GMT 48.56045 2.19474 10,225 186 285 2944
2017-09-12 18:04:10 GMT 48.56809 2.19575 9,900 185 283 3328
2017-09-12 18:04:07 GMT 48.57216 2.19614 9,750 183 283 2688
2017-09-12 18:04:05 GMT 48.57417 2.19628 9,675 183 284 2432
2017-09-12 18:04:00 GMT 48.58164 2.19618 9,475 176 279 2560
2017-09-12 18:03:55 GMT 48.58777 2.19543 9,275 174 278 2880
2017-09-12 18:03:50 GMT 48.59476 2.19445 9,025 174 275 2816
2017-09-12 18:03:48 GMT 48.59616 2.19401 8,975 173 275 2944
2017-09-12 18:03:45 GMT 48.59947 2.19365 8,825 173 274 3264
2017-09-12 18:03:43 GMT 48.60207 2.19322 8,725 173 274 3392
2017-09-12 18:03:38 GMT 48.60873 2.19219 8,425 173 273 3328
2017-09-12 18:03:35 GMT 48.61272 2.19135 8,250 173 273 3264
2017-09-12 18:03:33 GMT 48.61464 2.19112 8,150 173 273 3328
2017-09-12 18:03:29 GMT 48.62064 2.19008 7,900 173 271 3328
2017-09-12 18:03:27 GMT 48.62200 2.18982 7,825 173 271 3328
2017-09-12 18:03:25 GMT 48.62498 2.18939 7,700 173 271 3328
2017-09-12 18:03:23 GMT 48.62842 2.18881 7,550 173 271 3328
2017-09-12 18:03:19 GMT 48.63263 2.18797 7,375 174 269 3264
2017-09-12 18:03:17 GMT 48.63489 2.18780 7,275 174 269 3264
2017-09-12 18:03:13 GMT 48.64032 2.18698 7,025 177 267 3200
2017-09-12 18:03:09 GMT 48.64531 2.18684 6,800 182 264 3136
2017-09-12 18:03:07 GMT 48.64796 2.18705 6,700 186 262 3264
2017-09-12 18:03:02 GMT 48.65291 2.18811 6,450 193 258 3264
2017-09-12 18:02:58 GMT 48.65896 2.19069 6,200 204 253 2560
2017-09-12 18:02:56 GMT 48.66005 2.19135 6,150 204 253 2560
2017-09-12 18:02:52 GMT 48.66441 2.19546 5,975 213 247 2752
2017-09-12 18:02:48 GMT 48.66864 2.19943 5,775 225 241 2240
2017-09-12 18:02:46 GMT 48.66995 2.20175 5,700 225 241 2240
2017-09-12 18:02:41 GMT 48.67369 2.20797 5,575 233 236 896
2017-09-12 18:02:38 GMT 48.67562 2.21194 5,525 236 226 1088
2017-09-12 18:02:36 GMT 48.67735 2.21586 5,475 236 222 1088
2017-09-12 18:02:32 GMT 48.67912 2.21967 5,425 236 216 896
2017-09-12 18:02:26 GMT 48.68270 2.22697 5,300 237 204 1280
2017-09-12 18:02:24 GMT 48.68349 2.22943 5,275 237 203 1472
2017-09-12 18:02:21 GMT 48.68500 2.23283 5,175 237 196 2368
2017-09-12 18:02:18 GMT 48.68697 2.23741 5,025 237 194 3008
2017-09-12 18:02:16 GMT 48.68773 2.23861 4,925 237 193 3072
2017-09-12 18:02:14 GMT 48.68825 2.23966 4,875 237 192 3072
2017-09-12 18:02:10 GMT 48.69035 2.24424 4,675 237 192 2560
2017-09-12 18:02:07 GMT 48.69183 2.24764 4,575 238 189 1280
2017-09-12 18:02:04 GMT 48.69315 2.25093 4,525 238 185 896
2017-09-12 18:02:01 GMT 48.69479 2.25515 4,450 237 177 768
2017-09-12 18:01:59 GMT 48.69550 2.25624 4,450 237 175 768
2017-09-12 18:01:57 GMT 48.69662 2.25931 4,400 237 169 1088
2017-09-12 18:01:54 GMT 48.69788 2.26217 4,350 236 164 1664
2017-09-12 18:01:49 GMT 48.69974 2.26600 4,200 236 158 1984
2017-09-12 18:01:47 GMT 48.70106 2.26868 4,100 235 157 1344
2017-09-12 18:01:43 GMT 48.70235 2.27135 4,025 235 152 1728
2017-09-12 18:01:39 GMT 48.70399 2.27558 3,925 235 144 1856
2017-09-12 18:01:36 GMT 48.70519 2.27800 3,825 235 139 1728
2017-09-12 18:01:33 GMT 48.70647 2.28044 3,725 235 135 2048
2017-09-12 18:01:31 GMT 48.70700 2.28125 3,675 236 135 2240
2017-09-12 18:01:29 GMT 48.70789 2.28354 3,575 237 132 2816
2017-09-12 18:01:24 GMT 48.70981 2.28825 3,300 239 132 2496
2017-09-12 18:01:22 GMT 48.70995 2.28818 3,275 239 132 2496
2017-09-12 18:01:19 GMT 48.71132 2.29142 3,100 241 129 2624
2017-09-12 18:01:16 GMT 48.71226 2.29383 2,975 242 129 2624
2017-09-12 18:01:13 GMT 48.71315 2.29622 2,850 242 129 2496
2017-09-12 18:01:07 GMT 48.71457 2.30093 2,650 243 125 2048
2017-09-12 18:01:06 GMT 48.71471 2.30093 2,625 243 126 1984
2017-09-12 18:01:03 GMT 48.71581 2.30403 2,475 243 122 2688
2017-09-12 18:01:01 GMT 48.71622 2.30551 2,400 243 121 2880
2017-09-12 18:00:57 GMT 48.71745 2.30861 2,175 243 123 2816
2017-09-12 18:00:56 GMT 48.71745 2.30861 2,175 243 123 2880
2017-09-12 18:00:52 GMT 48.71859 2.31248 1,975 243 123 2752
2017-09-12 18:00:49 GMT 48.71938 2.31480 1,825 243 123 2752
2017-09-12 18:00:46 GMT 48.72018 2.31703 1,675 244 123 3264
2017-09-12 18:00:44 GMT 48.72073 2.31862 1,550 244 123 3328
2017-09-12 18:00:41 GMT 48.72129 2.32014 1,425 243 124 3840
2017-09-12 18:00:36 GMT 48.72317 2.32586 975 244 132 3840
2017-09-12 18:00:32 GMT 48.72409 2.32838 800 244 136 3264

Making use of Plane Finder data

You are free to use the raw flight data, aircraft information and images provided in this report for your own purposes provided the data is correctly attributed to Plane Finder. We ask that you please credit Plane Finder and link to planefinder.net in close proximity to the content.

Optionally one of the following logos (no smaller then 150x24px) can be used and must link to planefinder.net

Embedding the Plane Finder map

You are welcome to embed the Plane Finder playback map on your website to offer visitors a more interactive experience. We suggest using the following HTML code:

<iframe src="//planefinder.net/data/report/TU635-TS-IOM-7700-squawk-2017-09-12/map" width="800" height="600" seamless="seamless"></iframe>

Where our data comes from

Plane Finder has a global network of data feeds and antenna radars that receive data broadcast directly from aircraft. The primary technologies used are ADS-B and MLAT. We also show feeds from the FAA and a FLARM glider feed.

Click here to find out more about the Plane Finder network.

How we collect our data